Time;durP1;ratioP1;P1;durP2;ratioP2;P2;SDS_P1;SDS_P2;PMS_P1;PMS_P2;Temp;Humidity;BMP_temperature;BMP_pressure;BME280_temperature;BME280_humidity;BME280_pressure;Samples;Min_cycle;Max_cycle;Signal;HPM_P1;HPM_P2
2021/07/04 00:00:43;;;;;;;14.80;7.80;;;;;;;16.66;100.00;96556.31;5048632;28;20071;-65
2021/07/04 00:03:08;;;;;;;16.05;7.03;;;;;;;16.76;100.00;96555.44;5043422;28;20627;-64
2021/07/04 00:05:37;;;;;;;11.77;7.35;;;;;;;16.85;100.00;96543.88;5046053;28;20055;-65
2021/07/04 00:08:04;;;;;;;12.32;7.07;;;;;;;16.84;100.00;96547.88;5043655;28;20443;-65
2021/07/04 00:10:33;;;;;;;12.63;7.30;;;;;;;16.69;100.00;96538.09;5042602;28;20097;-65
2021/07/04 00:12:59;;;;;;;12.80;7.18;;;;;;;16.66;100.00;96536.19;5042226;28;20095;-65
2021/07/04 00:15:28;;;;;;;11.88;7.75;;;;;;;16.57;100.00;96531.91;5058419;28;20527;-65
2021/07/04 00:17:54;;;;;;;11.43;7.78;;;;;;;16.48;100.00;96530.81;5063884;28;20079;-65
2021/07/04 00:20:21;;;;;;;18.70;8.18;;;;;;;16.34;100.00;96528.97;5058925;28;20087;-65
2021/07/04 00:22:48;;;;;;;17.77;8.63;;;;;;;16.24;100.00;96519.56;5063440;28;20068;-66
2021/07/04 00:25:16;;;;;;;23.30;8.38;;;;;;;16.08;100.00;96509.06;5058213;28;20075;-64
2021/07/04 00:27:41;;;;;;;16.48;9.35;;;;;;;16.01;100.00;96509.13;5063780;28;20040;-66
2021/07/04 00:30:11;;;;;;;17.85;8.73;;;;;;;16.08;100.00;96505.50;5058006;28;20045;-66
2021/07/04 00:32:37;;;;;;;14.70;8.82;;;;;;;16.09;100.00;96510.63;5063747;28;20474;-66
2021/07/04 00:35:04;;;;;;;14.45;8.60;;;;;;;16.03;100.00;96509.50;5062252;28;20048;-65
2021/07/04 00:37:29;;;;;;;13.70;8.82;;;;;;;15.99;100.00;96505.97;5064158;28;20047;-65
2021/07/04 00:39:55;;;;;;;17.50;9.30;;;;;;;15.99;100.00;96504.00;5062645;28;20037;-65
2021/07/04 00:42:20;;;;;;;16.40;9.38;;;;;;;16.01;100.00;96506.38;5058211;28;20045;-66
2021/07/04 00:44:46;;;;;;;15.18;8.73;;;;;;;16.03;100.00;96506.75;5063267;28;20052;-64
2021/07/04 00:47:11;;;;;;;15.98;8.27;;;;;;;15.99;100.00;96504.00;5058473;28;20041;-67
2021/07/04 00:49:36;;;;;;;15.60;8.15;;;;;;;16.04;100.00;96511.88;5063517;28;20489;-66
2021/07/04 00:52:02;;;;;;;11.48;7.28;;;;;;;16.24;100.00;96509.31;5061368;28;20037;-64
2021/07/04 00:54:28;;;;;;;14.20;6.95;;;;;;;16.38;100.00;96513.91;5041482;28;20048;-66
2021/07/04 00:56:54;;;;;;;9.40;6.40;;;;;;;16.53;100.00;96517.34;5043047;28;20127;-66
2021/07/04 00:59:19;;;;;;;11.75;6.72;;;;;;;16.70;100.00;96509.25;5055831;28;20129;-66
2021/07/04 01:01:45;;;;;;;12.48;6.15;;;;;;;16.88;100.00;96509.88;5061163;28;20055;-65
2021/07/04 01:04:11;;;;;;;9.98;6.15;;;;;;;16.92;100.00;96513.38;5057348;28;20036;-65
2021/07/04 01:06:37;;;;;;;14.40;7.55;;;;;;;16.70;100.00;96514.78;5050471;28;20049;-66
2021/07/04 01:09:03;;;;;;;12.93;7.47;;;;;;;16.29;100.00;96508.06;5060470;28;20056;-65
2021/07/04 01:11:28;;;;;;;12.75;8.02;;;;;;;16.18;100.00;96502.66;5047278;28;20478;-65
2021/07/04 01:13:54;;;;;;;11.00;7.95;;;;;;;16.10;100.00;96503.13;5057710;28;20043;-65
2021/07/04 01:16:19;;;;;;;16.35;8.75;;;;;;;16.08;100.00;96505.50;5056854;28;20033;-66
2021/07/04 01:18:45;;;;;;;13.35;8.77;;;;;;;16.08;100.00;96502.75;5062347;28;20044;-64
2021/07/04 01:21:12;;;;;;;15.02;9.25;;;;;;;16.02;100.00;96499.63;5057617;28;20044;-66
2021/07/04 01:23:37;;;;;;;21.10;9.27;;;;;;;15.93;100.00;96497.34;5045361;28;20127;-65
2021/07/04 01:26:03;;;;;;;13.65;9.30;;;;;;;15.91;100.00;96502.47;5039917;28;20129;-65
2021/07/04 01:28:28;;;;;;;16.38;9.10;;;;;;;15.96;100.00;96502.06;5040516;28;20048;-65
2021/07/04 01:30:58;;;;;;;18.30;9.57;;;;;;;16.00;100.00;96500.03;5042276;28;20375;-65
2021/07/04 01:33:24;;;;;;;20.33;9.38;;;;;;;16.05;100.00;96493.31;5036864;28;20210;-65
2021/07/04 01:35:49;;;;;;;17.65;8.95;;;;;;;16.02;100.00;96494.09;5042536;28;20504;-65
2021/07/04 01:38:15;;;;;;;13.45;8.45;;;;;;;16.02;100.00;96489.34;5037014;28;20041;-65
2021/07/04 01:40:41;;;;;;;14.80;9.35;;;;;;;15.96;100.00;96493.75;5042419;28;20569;-65
2021/07/04 01:43:06;;;;;;;14.82;8.73;;;;;;;15.97;100.00;96489.00;5036607;28;20040;-66
2021/07/04 01:45:31;;;;;;;21.88;9.52;;;;;;;16.03;100.00;96488.19;5063845;28;20041;-64
2021/07/04 01:47:57;;;;;;;14.57;8.20;;;;;;;16.16;100.00;96494.00;5049094;28;20053;-65
2021/07/04 01:50:26;;;;;;;14.00;7.82;;;;;;;16.39;100.00;96489.84;5036651;28;20072;-65
2021/07/04 01:52:51;;;;;;;9.52;6.72;;;;;;;16.56;100.00;96491.63;5056180;28;20049;-66
2021/07/04 01:55:18;;;;;;;10.48;6.53;;;;;;;16.65;100.00;96488.38;5053823;28;20125;-65
2021/07/04 01:57:45;;;;;;;11.85;6.53;;;;;;;16.48;100.00;96489.38;5055670;28;20044;-65
2021/07/04 02:00:23;;;;;;;13.52;7.07;;;;;;;16.34;100.00;96493.03;5051438;28;20497;-64
2021/07/04 02:02:54;;;;;;;13.82;7.32;;;;;;;16.43;100.00;96491.34;5059275;28;20044;-64
2021/07/04 02:05:20;;;;;;;11.27;7.43;;;;;;;16.32;100.00;96476.88;5043335;28;20051;-65
2021/07/04 02:07:46;;;;;;;13.00;7.50;;;;;;;16.23;100.00;96473.81;5053084;28;20090;-65
2021/07/04 02:10:17;;;;;;;14.23;8.85;;;;;;;16.12;100.00;96479.44;5056001;28;20040;-64
2021/07/04 02:12:43;;;;;;;16.95;9.40;;;;;;;16.13;100.00;96480.19;5057763;28;20132;-65
2021/07/04 02:15:11;;;;;;;12.07;8.25;;;;;;;16.31;100.00;96480.03;5052817;28;20045;-65
2021/07/04 02:17:37;;;;;;;15.70;7.07;;;;;;;16.55;100.00;96476.25;5050364;28;20124;-64
2021/07/04 02:20:30;;;;;;;11.10;7.03;;;;;;;16.79;100.00;96476.38;5038929;28;20128;-64
2021/07/04 02:22:56;;;;;;;10.52;6.90;;;;;;;16.95;100.00;96478.59;5051913;28;20137;-64
2021/07/04 02:25:21;;;;;;;10.25;6.57;;;;;;;17.02;100.00;96475.72;5053971;28;20669;-64
2021/07/04 02:27:47;;;;;;;11.63;6.22;;;;;;;17.06;100.00;96478.44;5052114;28;20049;-64
2021/07/04 02:30:12;;;;;;;10.38;7.10;;;;;;;17.04;100.00;96472.56;5054029;28;20132;-65
2021/07/04 02:32:38;;;;;;;10.20;7.25;;;;;;;16.88;100.00;96465.63;5056348;28;20045;-64
2021/07/04 02:35:05;;;;;;;15.13;7.45;;;;;;;16.66;100.00;96458.75;5056267;28;20391;-64
2021/07/04 02:37:30;;;;;;;11.98;7.78;;;;;;;16.58;100.00;96463.56;5051771;28;20127;-66
2021/07/04 02:39:56;;;;;;;15.48;7.88;;;;;;;16.50;100.00;96456.56;5059400;28;20136;-66
2021/07/04 02:42:21;;;;;;;11.23;6.72;;;;;;;16.55;100.00;96454.13;5050743;28;20207;-65
2021/07/04 02:44:47;;;;;;;12.05;7.38;;;;;;;16.67;100.00;96460.31;5054925;28;20045;-65
2021/07/04 02:47:12;;;;;;;12.82;7.35;;;;;;;16.84;100.00;96458.56;5048941;28;20055;-65
2021/07/04 02:49:38;;;;;;;8.85;6.10;;;;;;;16.95;100.00;96467.53;5056632;28;20048;-65
2021/07/04 02:52:04;;;;;;;10.10;6.65;;;;;;;17.00;100.00;96461.53;5050983;28;20044;-64
2021/07/04 02:54:29;;;;;;;11.43;6.38;;;;;;;17.03;100.00;96459.91;5064254;28;20040;-65
2021/07/04 02:56:54;;;;;;;11.80;6.18;;;;;;;17.04;100.00;96456.72;5061059;28;20047;-65
2021/07/04 02:59:20;;;;;;;10.55;6.38;;;;;;;16.98;100.00;96458.41;5052982;28;20044;-65
2021/07/04 03:01:45;;;;;;;12.23;6.07;;;;;;;16.86;100.00;96459.72;5057401;28;20525;-65
2021/07/04 03:04:11;;;;;;;9.20;6.22;;;;;;;16.90;100.00;96456.91;5050900;28;20048;-65
2021/07/04 03:06:37;;;;;;;8.68;5.85;;;;;;;16.96;100.00;96463.53;5056296;28;20486;-65
2021/07/04 03:09:03;;;;;;;10.20;6.55;;;;;;;16.96;100.00;96469.06;5046342;28;20051;-63
2021/07/04 03:11:28;;;;;;;10.35;6.47;;;;;;;16.93;100.00;96462.41;5038150;28;20128;-65
2021/07/04 03:13:54;;;;;;;11.95;6.55;;;;;;;16.86;100.00;96462.47;5060214;28;20037;-65
2021/07/04 03:16:19;;;;;;;9.60;5.90;;;;;;;16.81;100.00;96460.91;5050408;28;20049;-65
2021/07/04 03:18:45;;;;;;;9.85;5.90;;;;;;;16.79;100.00;96474.38;5053766;28;20051;-65
2021/07/04 03:21:10;;;;;;;11.95;6.10;;;;;;;16.77;100.00;96464.94;5058294;28;20424;-65
2021/07/04 03:23:36;;;;;;;13.50;6.93;;;;;;;16.75;100.00;96468.13;5060825;28;20493;-64
2021/07/04 03:26:01;;;;;;;10.13;6.55;;;;;;;16.82;100.00;96475.56;5058371;28;20055;-62
2021/07/04 03:28:27;;;;;;;8.82;6.32;;;;;;;16.87;100.00;96469.59;5059183;28;20436;-64
2021/07/04 03:30:53;;;;;;;10.77;6.95;;;;;;;16.96;100.00;96471.84;5053483;28;20036;-65
2021/07/04 03:33:18;;;;;;;10.95;7.55;;;;;;;16.94;100.00;96465.94;5057586;28;20037;-65
2021/07/04 03:35:44;;;;;;;10.20;7.40;;;;;;;16.79;100.00;96465.31;5051352;28;20098;-65
2021/07/04 03:38:10;;;;;;;15.45;9.80;;;;;;;16.71;100.00;96469.34;5046972;28;20048;-65
2021/07/04 03:40:35;;;;;;;9.90;6.72;;;;;;;16.70;100.00;96471.31;5060520;28;20041;-65
2021/07/04 03:43:01;;;;;;;15.40;8.45;;;;;;;16.71;100.00;96469.34;5047709;28;20098;-65
2021/07/04 03:45:26;;;;;;;12.07;7.90;;;;;;;16.76;100.00;96468.88;5058615;28;20386;-65
2021/07/04 03:47:51;;;;;;;11.95;7.00;;;;;;;16.70;100.00;96465.78;5057264;28;20464;-65
2021/07/04 03:50:17;;;;;;;12.82;7.32;;;;;;;16.68;100.00;96468.19;5055656;28;20045;-65
2021/07/04 03:52:43;;;;;;;11.95;7.20;;;;;;;16.82;100.00;96461.72;5063141;28;20040;-65
2021/07/04 03:55:09;;;;;;;14.05;6.97;;;;;;;16.98;100.00;96467.47;5052698;28;20044;-65
2021/07/04 03:57:35;;;;;;;9.50;5.82;;;;;;;17.10;100.00;96473.66;5054689;28;20044;-65
2021/07/04 04:00:03;;;;;;;7.88;5.63;;;;;;;17.27;100.00;96472.63;5056548;28;20096;-65
2021/07/04 04:02:31;;;;;;;12.80;6.13;;;;;;;17.32;100.00;96465.84;5060444;28;20048;-65
2021/07/04 04:04:57;;;;;;;9.93;6.07;;;;;;;17.31;100.00;96464.28;5062093;28;20106;-64
2021/07/04 04:07:24;;;;;;;9.18;5.82;;;;;;;17.39;100.00;96465.72;5041721;28;20072;-65
2021/07/04 04:09:52;;;;;;;12.38;6.25;;;;;;;17.43;100.00;96466.50;5057372;28;20410;-65
2021/07/04 04:12:18;;;;;;;11.68;5.78;;;;;;;17.49;100.00;96464.81;5056054;28;20040;-65
2021/07/04 04:14:44;;;;;;;7.20;5.35;;;;;;;17.50;100.00;96465.56;5057474;28;20089;-65
2021/07/04 04:17:09;;;;;;;8.68;6.22;;;;;;;17.45;100.00;96466.03;5058470;28;20041;-65
2021/07/04 04:19:35;;;;;;;9.63;6.13;;;;;;;17.18;100.00;96464.06;5063317;28;20041;-64
2021/07/04 04:22:00;;;;;;;10.52;6.75;;;;;;;16.93;100.00;96453.31;5063040;28;20463;-65
2021/07/04 04:24:27;;;;;;;14.30;7.65;;;;;;;16.82;100.00;96453.44;5055835;28;20505;-66
2021/07/04 04:26:52;;;;;;;10.82;6.45;;;;;;;16.88;100.00;96457.31;5062213;28;20136;-64
2021/07/04 04:29:18;;;;;;;14.63;6.82;;;;;;;16.85;100.00;96449.84;5049310;28;20463;-66
2021/07/04 04:31:43;;;;;;;14.10;8.38;;;;;;;16.65;100.00;96444.13;5061710;28;20123;-66
2021/07/04 04:34:10;;;;;;;16.05;8.57;;;;;;;16.57;100.00;96442.66;5059892;28;20048;-66
2021/07/04 04:36:35;;;;;;;16.88;9.18;;;;;;;16.47;100.00;96438.81;5075694;28;20486;-65
2021/07/04 04:39:03;;;;;;;13.35;8.82;;;;;;;16.35;100.00;96436.56;5059795;28;20055;-65
2021/07/04 04:41:29;;;;;;;16.17;9.00;;;;;;;16.40;100.00;96433.34;5052705;28;20135;-66
2021/07/04 04:43:54;;;;;;;14.07;9.45;;;;;;;16.46;100.00;96433.69;5056245;28;20137;-65
2021/07/04 04:46:19;;;;;;;18.70;9.35;;;;;;;16.50;100.00;96429.69;5055280;28;20048;-65
2021/07/04 04:48:45;;;;;;;19.50;9.70;;;;;;;16.54;100.00;96440.72;5055896;28;20392;-66
2021/07/04 04:51:10;;;;;;;17.83;8.02;;;;;;;16.60;100.00;96437.09;5056498;28;20083;-64
2021/07/04 04:53:36;;;;;;;12.15;7.35;;;;;;;16.41;100.00;96429.41;5060774;28;20085;-65
2021/07/04 04:56:01;;;;;;;13.48;7.57;;;;;;;16.47;100.00;96432.50;5059303;28;20056;-65
2021/07/04 04:58:27;;;;;;;11.75;7.40;;;;;;;16.60;100.00;96428.00;5056535;28;20047;-66
2021/07/04 05:00:52;;;;;;;8.95;7.10;;;;;;;16.66;100.00;96420.03;5047829;28;20067;-65
2021/07/04 05:03:17;;;;;;;11.77;7.65;;;;;;;16.63;100.00;96416.88;5049519;28;20120;-66
2021/07/04 05:05:43;;;;;;;11.50;6.53;;;;;;;16.74;100.00;96419.53;5057257;28;20033;-66
2021/07/04 05:08:08;;;;;;;9.07;6.80;;;;;;;16.81;100.00;96411.13;5048938;28;20177;-66
2021/07/04 05:10:34;;;;;;;9.45;7.03;;;;;;;16.95;100.00;96415.75;5063783;28;20044;-65
2021/07/04 05:12:59;;;;;;;13.82;6.68;;;;;;;16.91;100.00;96412.25;5056208;28;20044;-65
2021/07/04 05:15:24;;;;;;;9.77;6.32;;;;;;;17.12;100.00;96413.13;5046140;28;20048;-66
2021/07/04 05:17:50;;;;;;;7.15;5.47;;;;;;;17.43;100.00;96410.31;5042159;28;20040;-66
2021/07/04 05:20:15;;;;;;;8.40;5.43;;;;;;;17.75;100.00;96412.56;5037560;28;20045;-66
2021/07/04 05:22:41;;;;;;;7.95;5.53;;;;;;;18.01;99.23;96416.53;5051386;28;20040;-66
2021/07/04 05:25:07;;;;;;;8.80;5.25;;;;;;;17.81;97.42;96410.09;5055455;28;20059;-65
2021/07/04 05:27:34;;;;;;;10.77;6.10;;;;;;;17.38;99.22;96406.06;5050402;28;20102;-65
2021/07/04 05:29:59;;;;;;;8.52;5.63;;;;;;;17.22;100.00;96403.13;5055453;28;20565;-65
2021/07/04 05:32:25;;;;;;;9.10;5.63;;;;;;;16.89;100.00;96397.25;5052904;28;20139;-65
2021/07/04 05:34:50;;;;;;;10.00;6.18;;;;;;;17.08;100.00;96390.28;5059060;28;20481;-65
2021/07/04 05:37:19;;;;;;;8.77;5.63;;;;;;;16.98;100.00;96397.53;5053400;28;20071;-65
2021/07/04 05:39:44;;;;;;;9.65;6.25;;;;;;;17.11;100.00;96401.28;5054201;28;20513;-65
2021/07/04 05:42:09;;;;;;;9.68;5.00;;;;;;;18.18;96.86;96400.00;5051536;28;20074;-65
2021/07/04 05:44:35;;;;;;;5.80;4.22;;;;;;;19.97;85.83;96389.78;5052501;28;20033;-66
2021/07/04 05:47:00;;;;;;;6.22;3.55;;;;;;;22.60;77.46;96393.72;5060704;28;20067;-65
2021/07/04 05:49:26;;;;;;;7.82;3.58;;;;;;;24.30;63.79;96394.28;5048297;28;20133;-64
2021/07/04 05:51:52;;;;;;;6.07;3.78;;;;;;;24.46;64.04;96393.97;5061443;28;20175;-64
2021/07/04 05:54:17;;;;;;;5.57;3.55;;;;;;;24.64;62.76;96398.81;5051358;28;20040;-64
2021/07/04 05:56:43;;;;;;;5.72;3.17;;;;;;;24.23;63.67;96401.72;5054765;28;20048;-65
2021/07/04 05:59:08;;;;;;;4.20;2.97;;;;;;;24.83;61.49;96393.97;5047720;28;20478;-64
2021/07/04 06:01:34;;;;;;;5.90;3.38;;;;;;;24.76;59.89;96397.88;5051874;28;20124;-65
2021/07/04 06:04:00;;;;;;;7.10;3.10;;;;;;;24.66;61.95;96399.09;5060929;28;20114;-64
2021/07/04 06:06:25;;;;;;;4.57;3.28;;;;;;;24.21;62.87;96398.59;5051653;28;20095;-64
2021/07/04 06:08:51;;;;;;;5.55;3.10;;;;;;;23.65;64.70;96408.88;5056238;28;20054;-64
2021/07/04 06:11:17;;;;;;;4.47;2.63;;;;;;;23.66;66.01;96404.09;5046442;28;20044;-64
2021/07/04 06:13:42;;;;;;;4.05;3.05;;;;;;;23.07;67.48;96412.38;5058093;28;20401;-64
2021/07/04 06:16:09;;;;;;;4.45;3.30;;;;;;;22.05;70.79;96408.72;5040356;28;20561;-65
2021/07/04 06:18:35;;;;;;;5.68;3.33;;;;;;;21.90;72.16;96402.09;5053526;28;20439;-66
2021/07/04 06:21:00;;;;;;;5.80;3.40;;;;;;;21.77;72.50;96397.31;5059508;28;20040;-66
2021/07/04 06:23:26;;;;;;;5.93;3.33;;;;;;;22.14;69.68;96391.31;5052929;28;20067;-66
2021/07/04 06:25:51;;;;;;;4.88;3.00;;;;;;;22.47;68.34;96396.56;5052515;28;20040;-64
2021/07/04 06:28:16;;;;;;;4.95;2.97;;;;;;;22.60;67.41;96385.34;5053356;28;20044;-65
2021/07/04 06:30:42;;;;;;;4.45;2.88;;;;;;;22.47;65.96;96382.59;5055216;28;20036;-64
2021/07/04 06:33:07;;;;;;;4.30;3.03;;;;;;;22.69;67.12;96399.38;5050070;28;20168;-65
2021/07/04 06:35:33;;;;;;;5.30;2.70;;;;;;;23.51;63.41;96394.72;5052644;28;20032;-65
2021/07/04 06:37:58;;;;;;;6.35;3.08;;;;;;;23.84;62.28;96392.97;5058280;28;20138;-66
2021/07/04 06:40:23;;;;;;;4.72;3.17;;;;;;;23.74;62.15;96393.38;5047393;28;20494;-65
2021/07/04 06:42:49;;;;;;;5.90;3.15;;;;;;;23.43;63.71;96397.00;5060467;28;20051;-65
2021/07/04 06:45:15;;;;;;;4.97;2.92;;;;;;;23.82;63.28;96387.06;5047019;28;20563;-66
2021/07/04 06:47:45;;;;;;;5.05;3.05;;;;;;;24.47;60.56;96383.53;5060519;28;20131;-65
2021/07/04 06:50:11;;;;;;;3.97;2.78;;;;;;;23.77;61.68;96393.25;5066478;28;20052;-65
2021/07/04 06:52:37;;;;;;;5.15;2.90;;;;;;;23.83;61.75;96382.25;5059259;28;20049;-66
2021/07/04 06:55:05;;;;;;;6.95;2.72;;;;;;;23.00;63.85;96377.06;5049000;28;20041;-64
2021/07/04 06:57:31;;;;;;;6.80;2.90;;;;;;;22.90;63.73;96370.66;5045839;28;20044;-65
2021/07/04 07:00:17;;;;;;;3.92;2.60;;;;;;;23.74;61.53;96357.81;5059284;28;20047;-66
2021/07/04 07:02:42;;;;;;;5.85;4.00;;;;;;;23.55;60.95;96361.78;5051273;28;20036;-66
2021/07/04 07:05:10;;;;;;;4.05;2.60;;;;;;;23.04;62.96;96355.38;5053084;28;20056;-66
2021/07/04 07:07:36;;;;;;;3.28;2.30;;;;;;;24.02;60.11;96352.28;5056323;28;20045;-66
2021/07/04 07:10:03;;;;;;;3.72;2.38;;;;;;;23.83;61.18;96346.66;5048148;28;20041;-66
2021/07/04 07:12:28;;;;;;;4.25;2.33;;;;;;;24.61;58.42;96338.13;5057328;28;20045;-66
2021/07/04 07:14:54;;;;;;;2.78;2.17;;;;;;;24.44;58.92;96340.47;5050644;28;20067;-66
2021/07/04 07:17:20;;;;;;;4.05;2.22;;;;;;;24.94;56.69;96343.06;5042438;28;20362;-66
2021/07/04 07:19:45;;;;;;;6.03;1.83;;;;;;;25.34;55.32;96336.41;5052377;28;20385;-65
2021/07/04 07:22:11;;;;;;;3.90;1.85;;;;;;;25.41;55.22;96330.44;5054967;28;20497;-65
2021/07/04 07:24:36;;;;;;;4.65;2.10;;;;;;;25.47;54.86;96327.75;5052991;28;20055;-65
2021/07/04 07:27:02;;;;;;;3.88;1.73;;;;;;;24.18;58.71;96329.63;5052596;28;20501;-66
2021/07/04 07:29:28;;;;;;;4.70;1.90;;;;;;;24.72;57.73;96326.44;5045459;28;20130;-65
2021/07/04 07:31:53;;;;;;;8.30;4.15;;;;;;;24.04;59.42;96333.81;5041760;28;20052;-66
2021/07/04 07:34:19;;;;;;;3.10;2.20;;;;;;;23.59;59.85;96328.91;5044879;28;20116;-66
2021/07/04 07:36:45;;;;;;;3.45;2.22;;;;;;;23.73;59.21;96327.50;5049869;28;20068;-65
2021/07/04 07:39:10;;;;;;;4.43;2.40;;;;;;;23.52;60.37;96329.19;5034951;28;20087;-66
2021/07/04 07:41:36;;;;;;;4.78;2.38;;;;;;;24.74;56.89;96332.34;5050917;28;20094;-64
2021/07/04 07:44:01;;;;;;;4.68;2.10;;;;;;;25.34;54.50;96333.59;5054613;28;20098;-65
2021/07/04 07:46:27;;;;;;;2.95;1.77;;;;;;;24.80;56.86;96328.47;5051820;28;20084;-65
2021/07/04 07:48:52;;;;;;;3.67;2.15;;;;;;;24.08;59.91;96336.44;5052980;28;20113;-65
2021/07/04 07:51:17;;;;;;;4.70;2.83;;;;;;;23.56;60.34;96343.78;5052939;28;20121;-65
2021/07/04 07:53:43;;;;;;;3.10;2.00;;;;;;;23.20;62.53;96348.78;5039499;28;20052;-66
2021/07/04 07:56:09;;;;;;;4.22;1.98;;;;;;;23.04;62.67;96349.00;5035220;28;20037;-66
2021/07/04 07:58:35;;;;;;;6.03;2.67;;;;;;;23.47;62.32;96356.50;5052641;28;20100;-65
2021/07/04 08:01:00;;;;;;;2.72;1.90;;;;;;;24.58;56.88;96365.06;5040319;28;20052;-64
2021/07/04 08:03:25;;;;;;;5.43;2.60;;;;;;;25.42;53.83;96368.44;5035739;28;20060;-64
2021/07/04 08:05:52;;;;;;;4.03;2.10;;;;;;;25.15;54.35;96386.09;5055373;28;20145;-65
2021/07/04 08:08:17;;;;;;;3.95;2.05;;;;;;;24.48;56.88;96374.69;5054279;28;20139;-64
2021/07/04 08:10:43;;;;;;;3.30;2.10;;;;;;;24.13;57.89;96377.78;5055086;28;20036;-64
2021/07/04 08:13:08;;;;;;;4.07;2.50;;;;;;;23.58;60.16;96375.63;5057896;28;20056;-64
2021/07/04 08:15:34;;;;;;;5.18;2.30;;;;;;;23.44;59.18;96376.19;5062230;28;20072;-64
2021/07/04 08:17:59;;;;;;;4.20;2.40;;;;;;;23.79;59.60;96376.00;5056908;28;20053;-64
2021/07/04 08:20:25;;;;;;;4.47;2.78;;;;;;;23.82;58.30;96363.91;5054442;28;20045;-64
2021/07/04 08:22:50;;;;;;;4.78;2.00;;;;;;;23.75;59.59;96366.97;5048856;28;20132;-65
2021/07/04 08:25:16;;;;;;;4.75;2.13;;;;;;;23.91;59.22;96355.53;5056742;28;20123;-64
2021/07/04 08:27:43;;;;;;;4.45;2.28;;;;;;;24.11;59.23;96362.69;5058690;28;20432;-64
2021/07/04 08:30:11;;;;;;;5.55;2.40;;;;;;;23.93;59.13;96364.25;5053975;28;20039;-64
2021/07/04 08:32:37;;;;;;;5.95;2.60;;;;;;;23.82;59.85;96352.72;5062909;28;20106;-64
2021/07/04 08:35:05;;;;;;;4.32;2.70;;;;;;;23.98;59.24;96352.44;5057932;28;20059;-64
2021/07/04 08:37:31;;;;;;;4.07;2.35;;;;;;;24.09;57.86;96357.56;5054851;28;20485;-63
2021/07/04 08:39:56;;;;;;;6.10;2.65;;;;;;;24.26;57.43;96354.50;5048511;28;20052;-63
2021/07/04 08:42:22;;;;;;;4.95;2.75;;;;;;;23.88;58.49;96355.66;5040517;28;20561;-63
2021/07/04 08:44:49;;;;;;;3.53;2.30;;;;;;;24.28;58.66;96344.38;5054451;28;20127;-65
2021/07/04 08:47:16;;;;;;;7.75;3.08;;;;;;;24.13;58.72;96335.03;5050153;28;20045;-67
2021/07/04 08:49:41;;;;;;;4.20;2.60;;;;;;;23.90;59.33;96342.03;5061983;28;20063;-63
2021/07/04 08:52:07;;;;;;;5.32;2.40;;;;;;;24.46;58.03;96348.41;5053670;28;20037;-63
2021/07/04 08:54:32;;;;;;;3.10;2.20;;;;;;;24.18;58.33;96342.81;5058745;28;20413;-63
2021/07/04 08:56:58;;;;;;;4.50;2.60;;;;;;;24.38;56.65;96331.94;5057789;28;20055;-64
2021/07/04 08:59:23;;;;;;;3.20;2.15;;;;;;;24.36;57.22;96326.03;5057305;28;20082;-63
2021/07/04 09:01:49;;;;;;;5.60;2.30;;;;;;;24.68;56.65;96323.81;5060854;28;20050;-64
2021/07/04 09:04:19;;;;;;;3.70;2.38;;;;;;;25.17;54.76;96308.72;5053125;28;20041;-63
2021/07/04 09:06:49;;;;;;;;;;;;;;;25.46;54.85;96307.38;5049225;28;20037;-63
2021/07/04 09:09:27;;;;;;;3.50;2.50;;;;;;;25.07;54.79;96296.00;5036834;28;19920;-64
2021/07/04 09:12:12;;;;;;;3.15;2.33;;;;;;;25.28;54.50;96302.63;5057067;28;20049;-63
2021/07/04 09:14:41;;;;;;;3.13;1.90;;;;;;;25.74;54.05;96296.75;5057512;28;20467;-64
2021/07/04 09:17:11;;;;;;;2.92;1.98;;;;;;;26.02;52.38;96305.00;5048290;28;20040;-63
2021/07/04 09:19:40;;;;;;;3.15;1.90;;;;;;;25.91;53.34;96318.75;5058805;28;20044;-64
2021/07/04 09:22:09;;;;;;;2.93;2.00;;;;;;;25.67;53.71;96325.16;5055251;28;20127;-65
2021/07/04 09:24:36;;;;;;;4.75;2.20;;;;;;;25.29;56.33;96317.41;5059391;28;20566;-64
2021/07/04 09:27:03;;;;;;;3.78;2.55;;;;;;;24.63;57.10;96318.06;5053699;28;20131;-62
2021/07/04 09:29:58;;;;;;;2.97;2.25;;;;;;;24.72;56.60;96315.25;5059464;28;20045;-62
2021/07/04 09:32:26;;;;;;;4.07;2.17;;;;;;;24.57;56.60;96315.91;5047392;28;20047;-62
2021/07/04 09:35:19;;;;;;;4.28;1.90;;;;;;;24.42;56.84;96331.78;5062826;28;20048;-63
2021/07/04 09:37:47;;;;;;;4.28;2.20;;;;;;;24.38;57.33;96328.34;5051425;28;20404;-61
2021/07/04 09:40:26;;;;;;;3.65;2.00;;;;;;;23.97;59.69;96333.34;5053234;28;20131;-64
2021/07/04 09:43:06;;;;;;;5.40;2.65;;;;;;;24.27;58.18;96328.03;5053216;28;20036;-65
2021/07/04 09:45:46;;;;;;;3.53;2.22;;;;;;;24.43;58.08;96327.72;5061039;28;20559;-65
2021/07/04 09:48:12;;;;;;;4.03;2.20;;;;;;;24.69;57.35;96330.22;5054000;28;20048;-65
2021/07/04 09:50:43;;;;;;;6.63;1.85;;;;;;;25.10;57.17;96327.88;5063601;28;20032;-64
2021/07/04 09:53:09;;;;;;;3.65;2.42;;;;;;;25.24;55.96;96318.84;5047386;28;20505;-65
2021/07/04 09:55:35;;;;;;;4.95;2.55;;;;;;;24.36;56.96;96317.63;5057820;28;20102;-64
2021/07/04 09:58:03;;;;;;;3.05;1.90;;;;;;;24.73;56.36;96314.78;5053948;28;20127;-64
2021/07/04 10:00:34;;;;;;;3.80;2.20;;;;;;;25.07;54.41;96312.81;5064533;28;20078;-64
2021/07/04 10:03:09;;;;;;;3.10;2.22;;;;;;;25.04;55.06;96308.16;5042277;28;20040;-64
2021/07/04 10:05:37;;;;;;;3.30;2.35;;;;;;;24.29;57.01;96308.75;5056042;28;20075;-65
2021/07/04 10:08:19;;;;;;;3.60;2.40;;;;;;;24.70;56.43;96298.91;5054194;28;20060;-66
2021/07/04 10:10:44;;;;;;;4.60;2.17;;;;;;;25.04;55.14;96293.38;5061751;28;20131;-65
2021/07/04 10:13:10;;;;;;;2.63;1.85;;;;;;;24.59;57.04;96281.84;5047976;28;20072;-64
2021/07/04 10:15:35;;;;;;;2.95;2.28;;;;;;;25.04;55.54;96282.94;5063628;28;20043;-66
2021/07/04 10:18:02;;;;;;;5.00;2.67;;;;;;;25.60;53.08;96271.47;5055047;28;20524;-63
2021/07/04 10:20:29;;;;;;;4.35;2.20;;;;;;;24.82;54.89;96279.63;5053200;28;20057;-65
2021/07/04 10:22:55;;;;;;;5.22;2.03;;;;;;;25.08;55.27;96277.16;5058488;28;20045;-64
2021/07/04 10:25:20;;;;;;;4.28;2.65;;;;;;;24.86;54.47;96269.78;5039481;28;20041;-65
2021/07/04 10:27:50;;;;;;;2.88;2.20;;;;;;;24.39;57.04;96268.34;5053521;28;20056;-63
2021/07/04 10:30:15;;;;;;;3.00;1.95;;;;;;;24.36;57.13;96260.88;5047958;28;20096;-65
2021/07/04 10:33:21;;;;;;;3.65;2.20;;;;;;;24.18;57.80;96259.66;5044376;28;20123;-64
2021/07/04 10:36:06;;;;;;;4.50;2.58;;;;;;;24.86;55.46;96257.81;5048823;28;20047;-63
2021/07/04 10:38:43;;;;;;;4.30;2.33;;;;;;;24.90;56.18;96258.41;5060255;28;20040;-64
2021/07/04 10:41:12;;;;;;;3.33;2.38;;;;;;;25.15;54.66;96255.16;5055778;28;20120;-64
2021/07/04 10:43:55;;;;;;;4.45;2.15;;;;;;;24.90;54.91;96247.19;5060846;28;20485;-64
2021/07/04 10:46:51;;;;;;;4.10;2.25;;;;;;;25.29;53.80;96239.72;5054623;28;20044;-62
2021/07/04 10:49:19;;;;;;;3.53;2.15;;;;;;;25.39;53.68;96243.25;5036455;28;20565;-63
2021/07/04 10:51:59;;;;;;;3.58;2.40;;;;;;;24.96;55.63;96240.50;5041406;28;20045;-64
2021/07/04 10:54:40;;;;;;;4.90;2.20;;;;;;;25.19;54.62;96230.56;5041480;28;20041;-62
2021/07/04 10:57:09;;;;;;;3.80;1.98;;;;;;;24.53;55.95;96222.91;5037470;28;20037;-62
2021/07/04 11:00:04;;;;;;;3.17;2.20;;;;;;;24.75;55.83;96210.72;5045244;28;20048;-65
2021/07/04 11:02:54;;;;;;;3.78;2.47;;;;;;;24.80;54.41;96207.25;5050657;28;20036;-64
2021/07/04 11:05:41;;;;;;;3.35;2.28;;;;;;;24.83;54.75;96197.94;5039624;28;20033;-64
2021/07/04 11:08:10;;;;;;;3.70;2.15;;;;;;;25.21;53.71;96202.06;5046529;28;20127;-62
2021/07/04 11:10:49;;;;;;;3.03;2.45;;;;;;;25.21;54.47;96206.88;5047188;28;20067;-63
2021/07/04 11:13:14;;;;;;;4.03;2.55;;;;;;;25.19;54.45;96191.34;5051859;28;20167;-63
2021/07/04 11:15:40;;;;;;;5.00;2.30;;;;;;;24.92;55.15;96191.47;5056531;28;20135;-63
2021/07/04 11:18:10;;;;;;;3.60;2.10;;;;;;;25.34;53.51;96185.03;5046528;28;20856;-65
2021/07/04 11:20:38;;;;;;;2.90;2.08;;;;;;;25.21;53.24;96187.25;5053540;28;20052;-63
2021/07/04 11:23:06;;;;;;;3.17;2.03;;;;;;;25.13;54.09;96176.41;5050843;28;20099;-65
2021/07/04 11:25:42;;;;;;;3.67;2.30;;;;;;;24.24;56.68;96182.22;5054436;28;20052;-62
2021/07/04 11:28:16;;;;;;;4.28;1.90;;;;;;;24.90;55.63;96186.38;5034934;28;20053;-62